Mc Grath Airport
PAMC : now visible

Airfield :











YOU CAN JOIN US ON...

 
LOGIN :

Register | Disclaimer

   EN    FR    IT 

 









Legend :    VFR   Marginal VFR   IFR   Intensive IFR   Very Intensive IFR
Visi :
Ceiling :
>= 8 km
>= 3000ft
5 to 8 km
1000 to 3000 ft
1500m to 5 km
500 to 1000 ft
800 to 1500m
200 to 500 ft
< 800m
< 200 ft
Symbols :   Thunderstorms  Fog  Heavy snow  Heavy precipitations  Wind > 20 kt






- Airport Elevation : 341 ft
- IATA code : MCG


PAMC - Mc Grath

CURRENT METAR :
  • 261513Z AUTO 33007KT 2 1/2SM -SN BR OVC022 01/00 A2932 RMK AO2 P0000 T00060000 TSNO $

EXPIRED METARs :
  • 261453Z AUTO 31008KT 3SM -SN BR OVC026 01/00 A2931 RMK AO2 SLP930 P0001 60004 T00060000 53007 TSNO $
  • 261353Z AUTO 33007KT 8SM -SN OVC015 01/00 A2929 RMK AO2 SLP925 P0001 T00060000 TSNO $
  • 261331Z AUTO 32006KT 3SM -SN BR FEW006 OVC015 01/00 A2929 RMK AO2 P0000 T00060000 TSNO $
  • 261318Z AUTO 32006KT 2 1/2SM -SN BR FEW006 OVC017 01/00 A2929 RMK AO2 P0000 T00060000 TSNO $
  • 261253Z AUTO 33005KT 4SM -SN BR FEW006 BKN021 OVC047 01/00 A2929 RMK AO2 SLP924 P0002 T00060000 TSNO $

TAF PAMC
Valid from the 26 at 12:00 until the 27 at 12:00 UTC


261138Z 2612/2712 34008KT 1SM -SN BR OVC010
FM261500 34008KT 2SM -SN BKN010 OVC015
FM261800 34008KT 4SM -SN BR BKN015 OVC025
FM262100 34006KT 6SM -SN BKN025 BKN035 OVC050
FM270000 34005KT P6SM VCSH SCT025 BKN035 OVC050
PAZA FIR / North America



MET'MAP, your aeronautical weather chart ! - Copyright ORBIFLY December 2007 - Disclaimer

ORBIFLY MET'MAP TEAM :

Programming & Development : Alexandra Zaïnal
Concept & original design : Baudouin d'Aumeries
Assistance for programming : Marc-Olivier Méhu
Technical & hardware support : Manuel Goepfert

Contact : metmap@orbifly.com




SOURCES & CREDITS :

   NOAA       Earth
Advisory